createdAt,value
2018-11-28T00:00:54.529Z,53.44
2018-11-28T00:01:54.514Z,53.97
2018-11-28T00:02:54.503Z,53.47
2018-11-28T00:03:54.493Z,53.64
2018-11-28T00:04:54.481Z,54.47
2018-11-28T00:05:54.777Z,54.37
2018-11-28T00:06:54.459Z,54.37
2018-11-28T00:07:54.448Z,53.37
2018-11-28T00:08:54.756Z,54.07
2018-11-28T00:09:54.426Z,54.17
2018-11-28T00:10:54.416Z,54.27
2018-11-28T00:11:54.604Z,53.47
2018-11-28T00:12:54.392Z,54.07
2018-11-28T00:13:54.382Z,53.67
2018-11-28T00:14:54.377Z,54.17
2018-11-28T00:15:54.361Z,54.27
2018-11-28T00:16:54.349Z,54.17
2018-11-28T00:17:54.433Z,53.97
2018-11-28T00:18:54.329Z,54.47
2018-11-28T00:19:54.316Z,53.77
2018-11-28T00:20:54.305Z,54.67
2018-11-28T00:21:54.302Z,53.37
2018-11-28T00:22:54.286Z,53.57
2018-11-28T00:23:54.567Z,53.57
2018-11-28T00:24:54.290Z,53.77
2018-11-28T00:25:58.792Z,53.77
2018-11-28T00:26:54.240Z,53.77
2018-11-28T00:27:54.229Z,53.27
2018-11-28T00:28:54.218Z,53.57
2018-11-28T00:29:54.499Z,54.07
2018-11-28T00:30:56.875Z,54.07
2018-11-28T00:31:54.187Z,53.87
2018-11-28T00:32:54.173Z,54.07
2018-11-28T00:33:54.162Z,53.57
2018-11-28T00:34:54.151Z,53.67
2018-11-28T00:35:54.231Z,53.57
2018-11-28T00:36:54.130Z,53.67
2018-11-28T00:37:54.127Z,53.47
2018-11-28T00:38:54.349Z,53.77
2018-11-28T00:39:54.096Z,54.27
2018-11-28T00:40:54.086Z,53.67
2018-11-28T00:41:54.319Z,53.77
2018-11-28T00:42:54.063Z,53.47
2018-11-28T00:43:54.053Z,53.67
2018-11-28T00:44:54.044Z,53.57
2018-11-28T00:45:54.029Z,54.27
2018-11-28T00:46:54.020Z,54.10
2018-11-28T00:47:54.272Z,54.20
2018-11-28T00:48:54.005Z,54.39
2018-11-28T00:49:53.986Z,54.39
2018-11-28T00:50:53.976Z,54.10
2018-11-28T00:51:53.968Z,54.10
2018-11-28T00:52:53.954Z,54.30
2018-11-28T00:53:54.049Z,53.50
2018-11-28T00:54:53.936Z,54.10
2018-11-28T00:55:53.920Z,54.30
2018-11-28T00:56:53.909Z,54.10
2018-11-28T00:57:53.898Z,53.89
2018-11-28T00:58:53.887Z,54.10
2018-11-28T00:59:53.973Z,53.30
2018-11-28T01:00:53.868Z,54.20
2018-11-28T01:01:53.855Z,53.39
2018-11-28T01:02:53.846Z,53.50
2018-11-28T01:03:53.832Z,54.10
2018-11-28T01:04:53.824Z,53.69
2018-11-28T01:05:53.907Z,54.20
2018-11-28T01:06:53.801Z,53.69
2018-11-28T01:07:53.790Z,53.39
2018-11-28T01:08:53.778Z,53.89
2018-11-28T01:09:53.770Z,53.50
2018-11-28T01:10:53.757Z,53.59
2018-11-28T01:11:53.913Z,53.80
2018-11-28T01:12:53.733Z,54.30
2018-11-28T01:13:53.771Z,53.89
2018-11-28T01:14:53.712Z,53.39
2018-11-28T01:15:53.702Z,53.80
2018-11-28T01:16:53.691Z,54.39
2018-11-28T01:17:53.777Z,54.30
2018-11-28T01:18:53.668Z,54.50
2018-11-28T01:19:53.658Z,54.22
2018-11-28T01:20:53.645Z,54.20
2018-11-28T01:21:53.635Z,54.10
2018-11-28T01:22:53.624Z,54.22
2018-11-28T01:23:53.709Z,54.52
2018-11-28T01:24:53.602Z,54.43
2018-11-28T01:25:53.592Z,54.43
2018-11-28T01:26:53.581Z,54.43
2018-11-28T01:27:53.569Z,54.32
2018-11-28T01:28:53.559Z,53.52
2018-11-28T01:29:53.746Z,54.52
2018-11-28T01:30:53.537Z,54.22
2018-11-28T01:31:53.526Z,54.02
2018-11-28T01:32:53.515Z,54.22
2018-11-28T01:33:53.503Z,54.22
2018-11-28T01:34:53.492Z,53.52
2018-11-28T01:35:53.599Z,53.52
2018-11-28T01:36:53.471Z,54.12
2018-11-28T01:37:53.461Z,53.72
2018-11-28T01:38:53.548Z,53.52
2018-11-28T01:39:53.439Z,53.62
2018-11-28T01:40:53.429Z,53.72
2018-11-28T01:41:53.518Z,53.82
2018-11-28T01:42:53.410Z,53.42
2018-11-28T01:43:53.394Z,53.52
2018-11-28T01:44:53.383Z,52.92
2018-11-28T01:45:53.372Z,53.52
2018-11-28T01:46:53.361Z,53.72
2018-11-28T01:47:53.530Z,53.72
2018-11-28T01:48:53.339Z,53.42
2018-11-28T01:49:53.329Z,53.82
2018-11-28T01:50:53.317Z,54.32
2018-11-28T01:51:53.307Z,53.82
2018-11-28T01:52:53.296Z,53.80
2018-11-28T01:53:53.389Z,54.02
2018-11-28T01:54:53.273Z,53.50
2018-11-28T01:55:53.262Z,53.00
2018-11-28T01:56:53.251Z,53.39
2018-11-28T01:57:53.239Z,53.82
2018-11-28T01:58:53.229Z,53.30
2018-11-28T01:59:53.315Z,53.19
2018-11-28T02:00:53.208Z,53.09
2018-11-28T02:01:53.197Z,53.00
2018-11-28T02:02:53.186Z,53.09
2018-11-28T02:03:53.176Z,53.09
2018-11-28T02:04:53.165Z,53.19
2018-11-28T02:05:53.352Z,53.50
2018-11-28T02:06:53.142Z,52.69
2018-11-28T02:07:53.130Z,53.00
2018-11-28T02:08:53.453Z,53.09
2018-11-28T02:09:53.111Z,53.39
2018-11-28T02:10:53.098Z,53.09
2018-11-28T02:11:53.189Z,53.39
2018-11-28T02:12:53.075Z,53.09
2018-11-28T02:13:53.063Z,53.30
2018-11-28T02:14:53.054Z,53.19
2018-11-28T02:15:53.043Z,53.30
2018-11-28T02:16:53.031Z,53.19
2018-11-28T02:17:53.113Z,53.30
2018-11-28T02:18:53.010Z,53.19
2018-11-28T02:19:53.000Z,53.09
2018-11-28T02:20:52.994Z,53.09
2018-11-28T02:21:52.977Z,53.19
2018-11-28T02:22:52.965Z,53.30
2018-11-28T02:23:53.178Z,53.30
2018-11-28T02:24:52.944Z,53.30
2018-11-28T02:25:52.932Z,53.09
2018-11-28T02:26:52.921Z,53.09
2018-11-28T02:27:52.912Z,53.39
2018-11-28T02:28:52.900Z,53.00
2018-11-28T02:29:53.010Z,53.19
2018-11-28T02:30:53.377Z,52.59
2018-11-28T02:31:52.867Z,52.59
2018-11-28T02:32:52.865Z,52.49
2018-11-28T02:33:52.876Z,53.39
2018-11-28T02:34:52.833Z,53.39
2018-11-28T02:35:52.939Z,52.89
2018-11-28T02:36:52.815Z,52.89
2018-11-28T02:37:52.806Z,52.92
2018-11-28T02:38:53.026Z,52.69
2018-11-28T02:39:52.781Z,52.69
2018-11-28T02:40:54.213Z,52.80
2018-11-28T02:41:52.757Z,52.69
2018-11-28T02:42:52.746Z,52.69
2018-11-28T02:43:52.735Z,52.92
2018-11-28T02:44:52.726Z,52.89
2018-11-28T02:45:52.713Z,52.72
2018-11-28T02:46:52.797Z,53.30
2018-11-28T02:47:52.689Z,52.72
2018-11-28T02:48:53.376Z,53.32
2018-11-28T02:49:52.668Z,53.22
2018-11-28T02:50:52.659Z,53.02
2018-11-28T02:51:52.645Z,53.12
2018-11-28T02:52:52.732Z,52.72
2018-11-28T02:53:52.626Z,52.92
2018-11-28T02:54:52.617Z,52.82
2018-11-28T02:55:52.607Z,52.92
2018-11-28T02:56:52.591Z,52.92
2018-11-28T02:57:52.580Z,53.12
2018-11-28T02:58:52.761Z,53.42
2018-11-28T02:59:52.564Z,53.62
2018-11-28T03:00:52.549Z,53.02
2018-11-28T03:01:52.538Z,52.92
2018-11-28T03:02:52.529Z,53.12
2018-11-28T03:03:52.515Z,52.82
2018-11-28T03:04:52.684Z,52.92
2018-11-28T03:05:52.495Z,52.92
2018-11-28T03:06:52.482Z,53.42
2018-11-28T03:07:52.476Z,53.32
2018-11-28T03:08:52.620Z,53.32
2018-11-28T03:09:52.453Z,52.62
2018-11-28T03:10:52.530Z,52.62
2018-11-28T03:11:52.428Z,53.32
2018-11-28T03:12:52.417Z,53.22
2018-11-28T03:13:52.405Z,53.32
2018-11-28T03:14:52.396Z,53.12
2018-11-28T03:15:52.394Z,53.12
2018-11-28T03:16:52.503Z,53.32
2018-11-28T03:17:52.365Z,52.72
2018-11-28T03:18:52.351Z,53.32
2018-11-28T03:19:52.340Z,52.62
2018-11-28T03:20:52.331Z,53.42
2018-11-28T03:21:52.374Z,53.42
2018-11-28T03:22:52.483Z,52.82
2018-11-28T03:23:52.296Z,53.02
2018-11-28T03:24:52.287Z,52.92
2018-11-28T03:25:52.278Z,52.92
2018-11-28T03:26:52.267Z,52.82
2018-11-28T03:27:52.256Z,52.72
2018-11-28T03:28:52.369Z,52.62
2018-11-28T03:29:52.231Z,52.72
2018-11-28T03:30:52.224Z,53.12
2018-11-28T03:31:52.218Z,53.32
2018-11-28T03:32:52.197Z,53.12
2018-11-28T03:33:52.190Z,52.72
2018-11-28T03:34:52.454Z,52.82
2018-11-28T03:35:52.166Z,52.82
2018-11-28T03:36:52.154Z,52.92
2018-11-28T03:37:52.149Z,52.92
2018-11-28T03:38:52.214Z,53.12
2018-11-28T03:39:52.127Z,53.42
2018-11-28T03:40:52.308Z,53.42
2018-11-28T03:41:52.109Z,52.72
2018-11-28T03:42:52.089Z,53.32
2018-11-28T03:43:52.078Z,53.42
2018-11-28T03:44:52.067Z,52.72
2018-11-28T03:45:52.055Z,52.72
2018-11-28T03:46:52.226Z,52.75
2018-11-28T03:47:52.035Z,52.72
2018-11-28T03:48:52.024Z,53.12
2018-11-28T03:49:52.012Z,52.82
2018-11-28T03:50:52.002Z,52.82
2018-11-28T03:51:51.989Z,52.82
2018-11-28T03:52:52.882Z,53.05
2018-11-28T03:53:51.967Z,52.75
2018-11-28T03:54:51.956Z,52.75
2018-11-28T03:55:51.957Z,52.62
2018-11-28T03:56:51.937Z,52.55
2018-11-28T03:57:51.927Z,53.45
2018-11-28T03:58:52.019Z,53.14
2018-11-28T03:59:51.901Z,53.05
2018-11-28T04:00:51.891Z,52.84
2018-11-28T04:01:51.949Z,52.75
2018-11-28T04:02:51.904Z,53.34
2018-11-28T04:03:51.865Z,53.34
2018-11-28T04:04:52.098Z,53.05
2018-11-28T04:05:51.838Z,53.14
2018-11-28T04:06:51.825Z,53.34
2018-11-28T04:07:51.816Z,52.84
2018-11-28T04:08:51.803Z,52.94
2018-11-28T04:09:51.793Z,53.14
2018-11-28T04:10:51.884Z,52.55
2018-11-28T04:11:51.772Z,53.05
2018-11-28T04:12:51.762Z,53.07
2018-11-28T04:13:51.751Z,53.14
2018-11-28T04:14:51.741Z,53.37
2018-11-28T04:15:51.729Z,53.05
2018-11-28T04:16:51.821Z,52.94
2018-11-28T04:17:51.705Z,53.34
2018-11-28T04:18:51.695Z,53.34
2018-11-28T04:19:51.692Z,52.75
2018-11-28T04:20:51.673Z,52.75
2018-11-28T04:21:51.663Z,52.94
2018-11-28T04:22:51.831Z,53.05
2018-11-28T04:23:51.640Z,52.94
2018-11-28T04:24:51.634Z,52.55
2018-11-28T04:25:51.620Z,52.75
2018-11-28T04:26:51.612Z,53.25
2018-11-28T04:27:51.599Z,52.64
2018-11-28T04:28:51.685Z,53.45
2018-11-28T04:29:51.574Z,53.14
2018-11-28T04:30:51.571Z,53.14
2018-11-28T04:31:51.553Z,53.05
2018-11-28T04:32:51.549Z,53.25
2018-11-28T04:33:51.553Z,53.14
2018-11-28T04:34:51.802Z,52.94
2018-11-28T04:35:51.510Z,52.94
2018-11-28T04:36:51.499Z,52.94
2018-11-28T04:37:51.485Z,52.94
2018-11-28T04:38:51.705Z,52.94
2018-11-28T04:39:51.470Z,53.05
2018-11-28T04:40:51.660Z,52.75
2018-11-28T04:41:51.444Z,52.42
2018-11-28T04:42:51.431Z,52.55
2018-11-28T04:43:51.421Z,52.52
2018-11-28T04:44:51.409Z,52.62
2018-11-28T04:45:51.398Z,52.52
2018-11-28T04:46:51.486Z,52.52
2018-11-28T04:47:51.388Z,52.42
2018-11-28T04:48:51.381Z,52.42
2018-11-28T04:49:51.357Z,52.32
2018-11-28T04:50:51.345Z,52.42
2018-11-28T04:51:51.342Z,52.12
2018-11-28T04:52:51.424Z,52.01
2018-11-28T04:53:51.310Z,52.01
2018-11-28T04:54:51.307Z,52.12
2018-11-28T04:55:51.309Z,51.92
2018-11-28T04:56:51.303Z,51.92
2018-11-28T04:57:51.277Z,52.09
2018-11-28T04:58:51.465Z,52.19
2018-11-28T04:59:51.248Z,51.72
2018-11-28T05:00:51.237Z,51.69
2018-11-28T05:01:51.239Z,51.79
2018-11-28T05:02:51.212Z,51.89
2018-11-28T05:03:51.200Z,51.79
2018-11-28T05:04:51.396Z,51.89
2018-11-28T05:05:51.185Z,52.19
2018-11-28T05:06:51.173Z,51.79
2018-11-28T05:07:51.160Z,51.89
2018-11-28T05:08:51.298Z,52.09
2018-11-28T05:09:51.143Z,52.19
2018-11-28T05:10:51.229Z,52.09
2018-11-28T05:11:51.128Z,52.19
2018-11-28T05:12:51.116Z,52.19
2018-11-28T05:13:51.167Z,52.19
2018-11-28T05:14:51.080Z,52.09
2018-11-28T05:15:51.070Z,52.09
2018-11-28T05:16:51.349Z,51.89
2018-11-28T05:17:51.047Z,51.79
2018-11-28T05:18:51.041Z,51.79
2018-11-28T05:19:51.031Z,51.69
2018-11-28T05:20:51.016Z,51.69
2018-11-28T05:21:51.005Z,51.59
2018-11-28T05:22:51.277Z,51.69
2018-11-28T05:23:50.986Z,51.59
2018-11-28T05:24:50.969Z,51.69
2018-11-28T05:25:50.961Z,51.89
2018-11-28T05:26:50.949Z,51.69
2018-11-28T05:27:50.938Z,51.67
2018-11-28T05:28:51.037Z,51.87
2018-11-28T05:29:50.915Z,51.87
2018-11-28T05:30:50.907Z,51.69
2018-11-28T05:31:50.900Z,51.87
2018-11-28T05:32:50.883Z,51.77
2018-11-28T05:33:50.872Z,51.97
2018-11-28T05:34:50.956Z,51.77
2018-11-28T05:35:50.850Z,51.87
2018-11-28T05:36:50.846Z,51.77
2018-11-28T05:37:50.828Z,51.87
2018-11-28T05:38:52.120Z,51.87
2018-11-28T05:39:50.830Z,51.77
2018-11-28T05:40:50.893Z,51.97
2018-11-28T05:41:50.784Z,51.97
2018-11-28T05:42:50.777Z,52.07
2018-11-28T05:43:50.762Z,52.04
2018-11-28T05:44:50.753Z,51.84
2018-11-28T05:45:50.740Z,51.84
2018-11-28T05:46:50.836Z,51.64
2018-11-28T05:47:50.719Z,51.87
2018-11-28T05:48:50.709Z,51.84
2018-11-28T05:49:50.698Z,51.77
2018-11-28T05:50:50.685Z,51.84
2018-11-28T05:51:50.707Z,51.84
2018-11-28T05:52:50.836Z,51.84
2018-11-28T05:53:50.654Z,51.84
2018-11-28T05:54:50.642Z,51.64
2018-11-28T05:55:50.631Z,51.14
2018-11-28T05:56:50.621Z,51.14
2018-11-28T05:57:50.616Z,51.94
2018-11-28T05:58:50.798Z,51.14
2018-11-28T05:59:50.590Z,51.34
2018-11-28T06:00:50.577Z,51.25
2018-11-28T06:01:50.567Z,51.25
2018-11-28T06:02:50.554Z,51.25
2018-11-28T06:03:50.551Z,51.42
2018-11-28T06:04:50.639Z,51.42
2018-11-28T06:05:50.523Z,51.52
2018-11-28T06:06:50.510Z,51.52
2018-11-28T06:07:50.499Z,51.52
2018-11-28T06:08:50.792Z,51.32
2018-11-28T06:09:50.478Z,51.32
2018-11-28T06:10:50.582Z,51.12
2018-11-28T06:11:50.458Z,51.32
2018-11-28T06:12:50.445Z,51.32
2018-11-28T06:13:50.444Z,51.32
2018-11-28T06:14:50.423Z,51.42
2018-11-28T06:15:51.411Z,51.29
2018-11-28T06:16:50.721Z,51.22
2018-11-28T06:17:50.395Z,51.29
2018-11-28T06:18:50.385Z,51.29
2018-11-28T06:19:50.887Z,51.32
2018-11-28T06:20:50.367Z,51.29
2018-11-28T06:21:50.351Z,51.50
2018-11-28T06:22:50.529Z,51.29
2018-11-28T06:23:50.323Z,51.09
2018-11-28T06:24:50.311Z,51.39
2018-11-28T06:25:50.307Z,51.20
2018-11-28T06:26:50.319Z,50.97
2018-11-28T06:27:50.288Z,51.47
2018-11-28T06:28:50.465Z,50.97
2018-11-28T06:29:50.292Z,51.07
2018-11-28T06:30:51.793Z,50.97
2018-11-28T06:31:50.244Z,51.07
2018-11-28T06:32:51.449Z,50.77
2018-11-28T06:33:50.218Z,50.87
2018-11-28T06:34:50.484Z,51.27
2018-11-28T06:35:50.799Z,50.87
2018-11-28T06:36:50.190Z,51.07
2018-11-28T06:37:50.180Z,50.87
2018-11-28T06:38:50.170Z,50.74
2018-11-28T06:39:50.800Z,50.95
2018-11-28T06:40:50.254Z,50.95
2018-11-28T06:41:50.129Z,50.65
2018-11-28T06:42:50.887Z,50.65
2018-11-28T06:43:50.104Z,50.84
2018-11-28T06:44:50.093Z,50.54
2018-11-28T06:45:50.081Z,50.74
2018-11-28T06:46:50.177Z,50.65
2018-11-28T06:47:50.062Z,50.95
2018-11-28T06:48:50.050Z,51.04
2018-11-28T06:49:50.041Z,50.74
2018-11-28T06:50:50.028Z,50.65
2018-11-28T06:51:50.017Z,50.65
2018-11-28T06:52:50.289Z,50.65
2018-11-28T06:53:49.999Z,50.65
2018-11-28T06:54:49.984Z,50.95
2018-11-28T06:55:49.973Z,50.65
2018-11-28T06:56:49.962Z,51.04
2018-11-28T06:57:49.950Z,50.95
2018-11-28T06:58:50.046Z,50.82
2018-11-28T06:59:49.928Z,50.92
2018-11-28T07:00:49.917Z,50.82
2018-11-28T07:01:49.906Z,50.62
2018-11-28T07:02:49.896Z,50.74
2018-11-28T07:03:49.885Z,50.62
2018-11-28T07:04:50.074Z,50.52
2018-11-28T07:05:49.864Z,50.52
2018-11-28T07:06:49.855Z,50.52
2018-11-28T07:07:49.844Z,50.72
2018-11-28T07:08:52.126Z,50.32
2018-11-28T07:09:49.822Z,50.49
2018-11-28T07:10:49.920Z,50.30
2018-11-28T07:11:49.797Z,50.00
2018-11-28T07:12:49.787Z,50.99
2018-11-28T07:13:49.776Z,50.30
2018-11-28T07:14:49.764Z,50.57
2018-11-28T07:15:49.753Z,50.37
2018-11-28T07:16:49.837Z,50.57
2018-11-28T07:17:49.753Z,50.57
2018-11-28T07:18:49.721Z,50.37
2018-11-28T07:19:49.712Z,50.17
2018-11-28T07:20:49.703Z,50.17
2018-11-28T07:21:49.687Z,50.37
2018-11-28T07:22:49.991Z,50.37
2018-11-28T07:23:49.670Z,50.25
2018-11-28T07:24:49.660Z,50.07
2018-11-28T07:25:49.644Z,50.27
2018-11-28T07:26:49.634Z,50.05
2018-11-28T07:27:49.624Z,50.17
2018-11-28T07:28:49.710Z,50.37
2018-11-28T07:29:49.604Z,50.45
2018-11-28T07:30:49.589Z,50.45
2018-11-28T07:31:49.579Z,50.45
2018-11-28T07:32:49.568Z,50.05
2018-11-28T07:33:49.556Z,50.15
2018-11-28T07:34:49.647Z,50.25
2018-11-28T07:35:49.534Z,50.25
2018-11-28T07:36:49.524Z,50.15
2018-11-28T07:37:49.514Z,49.75
2018-11-28T07:38:49.568Z,50.02
2018-11-28T07:39:49.492Z,49.83
2018-11-28T07:40:49.686Z,50.02
2018-11-28T07:41:49.469Z,50.13
2018-11-28T07:42:49.459Z,50.23
2018-11-28T07:43:49.447Z,50.02
2018-11-28T07:44:49.441Z,49.21
2018-11-28T07:45:49.425Z,49.40
2018-11-28T07:46:49.590Z,49.60
2018-11-28T07:47:49.410Z,50.02
2018-11-28T07:48:49.396Z,49.80
2018-11-28T07:49:49.385Z,50.30
2018-11-28T07:50:49.374Z,50.30
2018-11-28T07:51:49.364Z,50.00
2018-11-28T07:52:49.453Z,49.78
2018-11-28T07:53:49.339Z,49.58
2018-11-28T07:54:49.335Z,49.38
2018-11-28T07:55:49.329Z,49.58
2018-11-28T07:56:49.307Z,49.66
2018-11-28T07:57:49.299Z,49.85
2018-11-28T07:58:49.459Z,49.66
2018-11-28T07:59:49.274Z,49.43
2018-11-28T08:00:49.269Z,48.83
2018-11-28T08:01:49.253Z,48.91
2018-11-28T08:02:49.243Z,48.11
2018-11-28T08:03:49.620Z,47.82
2018-11-28T08:04:49.398Z,48.10
2018-11-28T08:05:49.214Z,48.59
2018-11-28T08:06:49.210Z,48.29
2018-11-28T08:07:49.189Z,48.39
2018-11-28T08:08:49.181Z,48.27
2018-11-28T08:09:49.168Z,48.47
2018-11-28T08:10:49.254Z,48.35
2018-11-28T08:11:49.145Z,47.95
2018-11-28T08:12:49.143Z,48.22
2018-11-28T08:13:49.123Z,48.13
2018-11-28T08:14:49.115Z,47.83
2018-11-28T08:15:49.125Z,48.02
2018-11-28T08:16:49.301Z,47.83
2018-11-28T08:17:49.081Z,47.80
2018-11-28T08:18:49.073Z,47.41
2018-11-28T08:19:49.059Z,48.20
2018-11-28T08:20:49.049Z,47.58
2018-11-28T08:21:49.048Z,47.88
2018-11-28T08:22:49.135Z,47.38
2018-11-28T08:23:49.017Z,47.36
2018-11-28T08:24:49.005Z,47.38
2018-11-28T08:25:48.994Z,47.36
2018-11-28T08:26:48.983Z,47.46
2018-11-28T08:27:48.973Z,47.16
2018-11-28T08:28:49.151Z,46.94
2018-11-28T08:29:48.953Z,46.94
2018-11-28T08:30:48.946Z,47.04
2018-11-28T08:31:48.928Z,47.24
2018-11-28T08:32:48.918Z,47.24
2018-11-28T08:33:48.908Z,46.82
2018-11-28T08:34:49.182Z,47.31
2018-11-28T08:35:48.887Z,47.22
2018-11-28T08:36:48.874Z,47.02
2018-11-28T08:37:48.863Z,47.12
2018-11-28T08:38:49.063Z,46.70
2018-11-28T08:39:48.842Z,46.89
2018-11-28T08:40:48.929Z,46.30
2018-11-28T08:41:48.819Z,46.20
2018-11-28T08:42:48.808Z,45.90
2018-11-28T08:43:48.798Z,46.11
2018-11-28T08:44:48.787Z,46.11
2018-11-28T08:45:48.779Z,46.50
2018-11-28T08:46:48.871Z,46.01
2018-11-28T08:47:48.754Z,46.01
2018-11-28T08:48:48.744Z,46.01
2018-11-28T08:49:48.733Z,46.01
2018-11-28T08:50:48.723Z,46.01
2018-11-28T08:51:48.710Z,45.98
2018-11-28T08:52:48.956Z,45.79
2018-11-28T08:53:48.693Z,46.28
2018-11-28T08:54:48.677Z,46.28
2018-11-28T08:55:48.673Z,45.98
2018-11-28T08:56:48.659Z,46.38
2018-11-28T08:57:48.645Z,46.38
2018-11-28T08:58:48.901Z,46.28
2018-11-28T08:59:48.625Z,46.28
2018-11-28T09:00:48.615Z,46.48
2018-11-28T09:01:48.616Z,45.98
2018-11-28T09:02:48.590Z,46.01
2018-11-28T09:03:48.579Z,46.08
2018-11-28T09:04:48.687Z,46.08
2018-11-28T09:05:48.562Z,45.79
2018-11-28T09:06:48.548Z,45.98
2018-11-28T09:07:48.538Z,46.18
2018-11-28T09:08:48.655Z,46.08
2018-11-28T09:09:49.768Z,45.79
2018-11-28T09:10:48.788Z,45.98
2018-11-28T09:11:48.496Z,45.89
2018-11-28T09:12:48.484Z,46.18
2018-11-28T09:13:48.469Z,46.08
2018-11-28T09:14:48.462Z,45.89
2018-11-28T09:15:48.449Z,45.98
2018-11-28T09:16:48.535Z,45.98
2018-11-28T09:17:48.426Z,45.89
2018-11-28T09:18:48.426Z,45.98
2018-11-28T09:19:48.405Z,45.98
2018-11-28T09:20:48.394Z,45.98
2018-11-28T09:21:48.385Z,45.98
2018-11-28T09:22:48.475Z,45.89
2018-11-28T09:23:48.365Z,45.89
2018-11-28T09:24:48.350Z,46.08
2018-11-28T09:25:48.340Z,46.08
2018-11-28T09:26:48.339Z,45.98
2018-11-28T09:27:48.317Z,46.08
2018-11-28T09:28:48.419Z,46.08
2018-11-28T09:29:48.295Z,46.18
2018-11-28T09:30:48.287Z,46.26
2018-11-28T09:31:48.273Z,46.26
2018-11-28T09:32:48.264Z,45.76
2018-11-28T09:33:48.252Z,45.74
2018-11-28T09:34:48.511Z,45.76
2018-11-28T09:35:48.228Z,45.86
2018-11-28T09:36:48.231Z,46.06
2018-11-28T09:37:48.212Z,45.94
2018-11-28T09:38:48.248Z,45.84
2018-11-28T09:39:48.197Z,46.06
2018-11-28T09:40:48.285Z,45.64
2018-11-28T09:41:48.175Z,45.45
2018-11-28T09:42:48.155Z,45.47
2018-11-28T09:43:48.145Z,45.25
2018-11-28T09:44:48.129Z,45.54
2018-11-28T09:45:48.131Z,45.25
2018-11-28T09:46:48.236Z,45.54
2018-11-28T09:47:48.097Z,45.54
2018-11-28T09:48:48.093Z,45.35
2018-11-28T09:49:48.078Z,45.64
2018-11-28T09:50:48.067Z,45.32
2018-11-28T09:51:48.066Z,45.52
2018-11-28T09:52:48.217Z,45.72
2018-11-28T09:53:48.033Z,45.42
2018-11-28T09:54:48.029Z,45.13
2018-11-28T09:55:48.013Z,45.50
2018-11-28T09:56:48.000Z,45.10
2018-11-28T09:57:48.002Z,45.10
2018-11-28T09:58:48.293Z,44.91
2018-11-28T09:59:47.971Z,44.89
2018-11-28T10:00:47.966Z,45.08
2018-11-28T10:01:47.945Z,44.89
2018-11-28T10:02:47.940Z,44.69
2018-11-28T10:03:47.926Z,44.59
2018-11-28T10:04:48.027Z,44.69
2018-11-28T10:05:47.912Z,45.08
2018-11-28T10:06:47.891Z,44.98
2018-11-28T10:07:47.888Z,45.08
2018-11-28T10:08:47.874Z,45.18
2018-11-28T10:09:47.866Z,45.38
2018-11-28T10:10:48.022Z,44.79
2018-11-28T10:11:47.836Z,45.08
2018-11-28T10:12:47.834Z,44.67
2018-11-28T10:13:47.819Z,44.67
2018-11-28T10:14:47.822Z,44.67
2018-11-28T10:15:47.800Z,44.67
2018-11-28T10:16:48.686Z,44.76
2018-11-28T10:17:47.897Z,44.45
2018-11-28T10:18:47.768Z,44.06
2018-11-28T10:19:47.756Z,44.25
2018-11-28T10:20:47.746Z,43.34
2018-11-28T10:21:47.727Z,43.37
2018-11-28T10:22:47.824Z,43.44
2018-11-28T10:23:47.712Z,43.54
2018-11-28T10:24:47.696Z,43.34
2018-11-28T10:25:47.700Z,43.54
2018-11-28T10:26:47.680Z,43.44
2018-11-28T10:27:47.671Z,43.42
2018-11-28T10:28:47.777Z,43.32
2018-11-28T10:29:47.649Z,43.13
2018-11-28T10:30:47.634Z,43.30
2018-11-28T10:31:47.639Z,43.50
2018-11-28T10:32:47.610Z,43.10
2018-11-28T10:33:47.607Z,43.18
2018-11-28T10:34:47.774Z,43.18
2018-11-28T10:35:47.587Z,42.79
2018-11-28T10:36:47.577Z,43.08
2018-11-28T10:37:47.568Z,43.08
2018-11-28T10:38:47.560Z,42.99
2018-11-28T10:39:47.548Z,43.08
2018-11-28T10:40:47.841Z,43.28
2018-11-28T10:41:47.521Z,43.08
2018-11-28T10:42:47.508Z,43.48
2018-11-28T10:43:47.492Z,42.79
2018-11-28T10:44:47.491Z,42.67
2018-11-28T10:45:47.480Z,42.86
2018-11-28T10:46:47.567Z,43.46
2018-11-28T10:47:47.446Z,43.38
2018-11-28T10:48:47.446Z,43.38
2018-11-28T10:49:47.429Z,42.89
2018-11-28T10:50:47.421Z,43.18
2018-11-28T10:51:50.302Z,43.18
2018-11-28T10:52:47.503Z,43.36
2018-11-28T10:53:47.397Z,43.06
2018-11-28T10:54:47.373Z,43.26
2018-11-28T10:55:47.379Z,42.85
2018-11-28T10:56:47.358Z,42.85
2018-11-28T10:57:47.345Z,43.14
2018-11-28T10:58:47.638Z,43.14
2018-11-28T10:59:47.328Z,43.43
2018-11-28T11:00:47.305Z,42.72
2018-11-28T11:01:47.309Z,42.92
2018-11-28T11:02:47.312Z,42.82
2018-11-28T11:03:47.287Z,42.82
2018-11-28T11:04:47.384Z,42.80
2018-11-28T11:05:47.262Z,42.51
2018-11-28T11:06:47.243Z,42.10
2018-11-28T11:07:47.242Z,42.51
2018-11-28T11:08:47.336Z,42.19
2018-11-28T11:09:47.216Z,42.19
2018-11-28T11:10:47.480Z,42.39
2018-11-28T11:11:47.193Z,42.21
2018-11-28T11:12:47.180Z,42.51
2018-11-28T11:13:47.172Z,42.00
2018-11-28T11:14:47.170Z,41.71
2018-11-28T11:15:47.157Z,42.00
2018-11-28T11:16:47.244Z,41.80
2018-11-28T11:17:47.146Z,42.29
2018-11-28T11:18:47.117Z,42.00
2018-11-28T11:19:47.104Z,41.98
2018-11-28T11:20:47.101Z,42.47
2018-11-28T11:21:47.093Z,42.05
2018-11-28T11:22:47.325Z,41.76
2018-11-28T11:23:47.058Z,41.45
2018-11-28T11:24:47.048Z,41.45
2018-11-28T11:25:47.046Z,41.42
2018-11-28T11:26:47.059Z,41.13
2018-11-28T11:27:47.020Z,41.60
2018-11-28T11:28:47.352Z,41.11
2018-11-28T11:29:47.003Z,41.70
2018-11-28T11:30:47.004Z,41.58
2018-11-28T11:31:46.972Z,41.49
2018-11-28T11:32:47.022Z,41.39
2018-11-28T11:33:46.965Z,42.56
2018-11-28T11:34:47.056Z,41.29
2018-11-28T11:35:46.940Z,41.46
2018-11-28T11:36:46.924Z,41.56
2018-11-28T11:37:46.915Z,41.36
2018-11-28T11:38:47.234Z,41.76
2018-11-28T11:39:46.887Z,41.56
2018-11-28T11:40:47.112Z,41.96
2018-11-28T11:41:46.869Z,42.15
2018-11-28T11:42:46.870Z,41.96
2018-11-28T11:43:46.849Z,42.15
2018-11-28T11:44:46.848Z,42.25
2018-11-28T11:45:46.835Z,41.56
2018-11-28T11:46:46.921Z,42.25
2018-11-28T11:47:46.834Z,41.86
2018-11-28T11:48:46.801Z,41.76
2018-11-28T11:49:46.792Z,41.76
2018-11-28T11:50:46.799Z,41.97
2018-11-28T11:51:46.762Z,41.88
2018-11-28T11:52:46.922Z,41.97
2018-11-28T11:53:46.739Z,41.97
2018-11-28T11:54:46.787Z,42.17
2018-11-28T11:55:46.732Z,42.46
2018-11-28T11:56:46.740Z,42.07
2018-11-28T11:57:46.708Z,41.88
2018-11-28T11:58:46.977Z,42.36
2018-11-28T11:59:46.687Z,41.88
2018-11-28T12:00:46.663Z,41.58
2018-11-28T12:01:46.722Z,41.97
2018-11-28T12:02:46.650Z,41.68
2018-11-28T12:03:46.643Z,42.17
2018-11-28T12:04:46.801Z,42.56
2018-11-28T12:05:46.626Z,41.97
2018-11-28T12:06:46.611Z,42.36
2018-11-28T12:07:46.595Z,41.88
2018-11-28T12:08:46.867Z,42.27
2018-11-28T12:09:46.573Z,41.70
2018-11-28T12:10:46.664Z,42.29
2018-11-28T12:11:46.555Z,41.80
2018-11-28T12:12:51.683Z,42.31
2018-11-28T12:13:47.538Z,41.92
2018-11-28T12:14:46.523Z,42.21
2018-11-28T12:15:46.522Z,42.31
2018-11-28T12:16:46.687Z,41.92
2018-11-28T12:17:46.505Z,41.92
2018-11-28T12:18:46.472Z,42.02
2018-11-28T12:19:46.487Z,41.92
2018-11-28T12:20:46.461Z,42.11
2018-11-28T12:21:46.458Z,41.72
2018-11-28T12:22:46.545Z,42.50
2018-11-28T12:23:46.423Z,41.92
2018-11-28T12:24:46.421Z,41.50
2018-11-28T12:25:46.412Z,40.92
2018-11-28T12:26:46.429Z,41.00
2018-11-28T12:27:46.390Z,40.90
2018-11-28T12:28:46.550Z,40.70
2018-11-28T12:29:46.373Z,41.02
2018-11-28T12:30:46.353Z,41.02
2018-11-28T12:31:46.346Z,40.82
2018-11-28T12:32:46.333Z,41.39
2018-11-28T12:33:46.337Z,40.50
2018-11-28T12:34:50.415Z,40.39
2018-11-28T12:35:46.306Z,40.39
2018-11-28T12:36:46.290Z,39.70
2018-11-28T12:37:46.286Z,39.59
2018-11-28T12:38:46.273Z,40.27
2018-11-28T12:39:46.263Z,40.25
2018-11-28T12:40:46.369Z,39.86
2018-11-28T12:41:46.242Z,39.78
2018-11-28T12:42:46.231Z,39.69
2018-11-28T12:43:46.222Z,39.59
2018-11-28T12:44:46.214Z,40.88
2018-11-28T12:45:46.200Z,41.09
2018-11-28T12:46:46.290Z,41.21
2018-11-28T12:47:46.174Z,41.11
2018-11-28T12:48:46.161Z,41.52
2018-11-28T12:49:46.153Z,41.64
2018-11-28T12:50:46.143Z,42.25
2018-11-28T12:51:46.920Z,42.27
2018-11-28T12:52:46.354Z,42.18